Time;durP1;ratioP1;P1;durP2;ratioP2;P2;SDS_P1;SDS_P2;PMS_P1;PMS_P2;Temp;Humidity;BMP_temperature;BMP_pressure;BME280_temperature;BME280_humidity;BME280_pressure;Samples;Min_cycle;Max_cycle;Signal;HPM_P1;HPM_P2
2022/04/16 00:01:19;;;;;;;5.07;1.80;;;6.70;99.90;6.40;101845.00;;;;4857716;28;122644;-64
2022/04/16 00:03:45;;;;;;;1.90;1.80;;;7.00;99.90;6.40;101850.00;;;;4858455;28;92725;-64
2022/04/16 00:06:11;;;;;;;2.70;1.83;;;6.50;99.90;6.40;101845.00;;;;4858251;28;92826;-64
2022/04/16 00:08:37;;;;;;;4.87;2.33;;;6.50;99.90;6.40;101854.00;;;;4861433;28;123035;-64
2022/04/16 00:11:06;;;;;;;3.00;2.10;;;6.60;99.90;6.40;101853.00;;;;4877542;28;93384;-64
2022/04/16 00:13:32;;;;;;;3.93;2.10;;;6.50;99.90;6.40;101852.00;;;;4873893;28;93140;-64
2022/04/16 00:15:58;;;;;;;2.80;2.17;;;6.90;99.90;6.30;101853.00;;;;4858028;28;100338;-64
2022/04/16 00:18:33;;;;;;;3.90;2.13;;;6.50;99.90;6.30;101871.00;;;;4856446;28;121823;-65
2022/04/16 00:21:04;;;;;;;2.27;2.03;;;6.40;99.90;6.30;101846.00;;;;4873424;28;93982;-64
2022/04/16 00:23:30;;;;;;;2.93;1.73;;;6.70;99.90;6.30;101858.00;;;;4876202;28;93757;-64
2022/04/16 00:25:56;;;;;;;3.00;1.63;;;6.60;99.90;6.20;101865.00;;;;4858694;28;92872;-65
2022/04/16 00:28:22;;;;;;;2.87;1.57;;;6.40;99.90;6.20;101873.00;;;;4872001;28;93919;-64
2022/04/16 00:30:48;;;;;;;2.20;1.80;;;6.60;99.90;6.10;101871.00;;;;4858173;28;92888;-64
2022/04/16 00:33:20;;;;;;;1.83;1.70;;;6.30;99.90;6.10;101870.00;;;;4857882;28;105111;-64
2022/04/16 00:35:46;;;;;;;1.37;1.07;;;6.30;99.90;6.10;101873.00;;;;4872418;28;108126;-65
2022/04/16 00:38:12;;;;;;;1.33;1.23;;;6.50;99.90;6.00;101870.00;;;;4857857;28;94132;-65
2022/04/16 00:40:38;;;;;;;1.93;1.20;;;6.40;99.90;6.00;101877.00;;;;4876020;28;122316;-64
2022/04/16 00:43:05;;;;;;;2.73;1.40;;;6.70;99.90;5.90;101883.00;;;;4876514;28;92896;-64
2022/04/16 00:45:31;;;;;;;0.50;0.50;;;6.10;99.90;5.90;101887.00;;;;4876766;28;92858;-64
2022/04/16 00:47:59;;;;;;;1.67;1.20;;;6.00;99.90;5.80;101889.00;;;;4875480;28;94708;-64
2022/04/16 00:50:25;;;;;;;1.17;0.87;;;6.00;99.90;5.70;101896.00;;;;4876614;28;94954;-65
2022/04/16 00:52:51;;;;;;;0.90;0.83;;;5.90;99.90;5.70;101893.00;;;;4866477;28;92942;-64
2022/04/16 00:55:17;;;;;;;1.87;0.80;;;5.90;99.90;5.60;101891.00;;;;4870414;28;92769;-64
2022/04/16 00:57:43;;;;;;;1.33;0.70;;;5.80;99.90;5.60;101890.00;;;;4875895;28;114766;-64
2022/04/16 01:00:14;;;;;;;0.83;0.83;;;6.10;99.90;5.50;101894.00;;;;4875707;28;109801;-64
2022/04/16 01:02:40;;;;;;;1.67;1.10;;;5.50;99.90;5.50;101902.00;;;;4874961;28;93128;-64
2022/04/16 01:05:07;;;;;;;1.83;0.97;;;6.00;99.90;5.40;101902.00;;;;4876996;28;92458;-64
2022/04/16 01:07:33;;;;;;;0.90;0.77;;;5.60;99.90;5.40;101895.00;;;;4870514;28;93738;-64
2022/04/16 01:09:59;;;;;;;1.53;0.93;;;5.70;99.90;5.30;101901.00;;;;4856873;28;92957;-64
2022/04/16 01:12:26;;;;;;;0.77;0.77;;;5.50;99.90;5.30;101899.00;;;;4857461;28;109338;-64
2022/04/16 01:14:52;;;;;;;1.30;0.80;;;5.90;99.90;5.20;101903.00;;;;4857887;28;92609;-65
2022/04/16 01:17:21;;;;;;;0.70;0.70;;;5.40;99.90;5.10;101902.00;;;;4870310;28;93498;-64
2022/04/16 01:19:47;;;;;;;0.80;0.67;;;5.30;99.90;5.00;101913.00;;;;4857722;28;120881;-64
2022/04/16 01:22:14;;;;;;;1.80;1.13;;;5.40;99.90;4.90;101905.00;;;;4861715;28;92972;-64
2022/04/16 01:24:46;;;;;;;2.50;1.00;;;5.10;99.90;4.80;101907.00;;;;4871030;28;93153;-64
2022/04/16 01:27:11;;;;;;;0.60;0.60;;;5.00;99.90;4.60;101905.00;;;;4876391;28;93256;-64
2022/04/16 01:29:37;;;;;;;1.10;0.67;;;4.90;99.90;4.50;101921.00;;;;4871832;28;92202;-64
2022/04/16 01:32:03;;;;;;;3.30;1.20;;;4.80;99.90;4.40;101922.00;;;;4867463;28;92834;-64
2022/04/16 01:34:29;;;;;;;1.20;0.80;;;4.70;99.90;4.30;101913.00;;;;4857106;28;97963;-65
2022/04/16 01:36:58;;;;;;;1.07;0.97;;;4.60;99.90;4.30;101913.00;;;;4871298;28;94950;-64
2022/04/16 01:39:23;;;;;;;0.77;0.77;;;4.50;99.90;4.20;101923.00;;;;4875994;28;93960;-65
2022/04/16 01:41:49;;;;;;;2.00;1.40;;;4.50;99.90;4.10;101930.00;;;;4864103;28;93106;-65
2022/04/16 01:44:15;;;;;;;5.47;1.07;;;4.40;99.90;4.00;101935.00;;;;4857619;28;92772;-64
2022/04/16 01:46:43;;;;;;;0.93;0.80;;;4.30;99.90;4.00;101929.00;;;;4855815;28;122867;-64
2022/04/16 01:49:10;;;;;;;0.70;0.70;;;4.20;99.90;3.90;101928.00;;;;4870626;28;122950;-64
2022/04/16 01:51:35;;;;;;;1.50;1.13;;;4.20;99.90;3.90;101931.00;;;;4875199;28;92864;-64
2022/04/16 01:54:07;;;;;;;0.93;0.67;;;4.10;99.90;3.80;101928.00;;;;4873909;28;109182;-65
2022/04/16 01:56:33;;;;;;;0.90;0.90;;;4.10;99.90;3.90;101939.00;;;;4868128;28;123190;-65
2022/04/16 01:58:58;;;;;;;3.80;1.03;;;4.10;99.90;3.90;101940.00;;;;4874753;28;122781;-65
2022/04/16 02:01:24;;;;;;;1.93;0.77;;;4.50;99.90;3.90;101938.00;;;;4865451;28;110539;-64
2022/04/16 02:03:50;;;;;;;3.17;0.93;;;4.10;99.90;3.90;101935.00;;;;4855851;28;108083;-64
2022/04/16 02:06:37;;;;;;;3.20;0.67;;;4.10;99.90;3.90;101943.00;;;;4855795;28;121946;-64
2022/04/16 02:09:03;;;;;;;0.60;0.60;;;4.20;99.90;4.00;101928.00;;;;4856016;28;121019;-64
2022/04/16 02:11:30;;;;;;;1.20;0.90;;;4.20;99.90;4.00;101936.00;;;;4873584;28;110130;-65
2022/04/16 02:14:02;;;;;;;5.67;0.93;;;4.20;99.90;4.00;101933.00;;;;4864987;28;92855;-64
2022/04/16 02:16:28;;;;;;;0.73;0.60;;;4.70;99.90;4.00;101935.00;;;;4874299;28;94270;-64
2022/04/16 02:18:53;;;;;;;6.23;1.27;;;4.20;99.90;4.00;101918.00;;;;4874269;28;120779;-64
2022/04/16 02:21:20;;;;;;;1.90;1.23;;;4.20;99.90;4.00;101942.00;;;;4875569;28;94935;-64
2022/04/16 02:23:46;;;;;;;1.27;1.17;;;4.70;99.90;4.00;101930.00;;;;4861472;28;92966;-64
2022/04/16 02:26:14;;;;;;;2.23;0.87;;;4.20;99.90;4.00;101930.00;;;;4854994;28;123757;-64
2022/04/16 02:28:40;;;;;;;4.50;0.87;;;4.20;99.90;4.00;101941.00;;;;4874149;28;121503;-65
2022/04/16 02:31:06;;;;;;;6.43;1.20;;;4.20;99.90;4.00;101934.00;;;;4855913;28;110116;-64
2022/04/16 02:33:31;;;;;;;0.90;0.90;;;4.10;99.90;4.00;101929.00;;;;4875080;28;108594;-64
2022/04/16 02:36:00;;;;;;;0.73;0.73;;;4.20;99.90;4.00;101936.00;;;;4858449;28;123319;-64
2022/04/16 02:38:25;;;;;;;2.23;1.03;;;4.20;99.90;4.00;101932.00;;;;4855741;28;93335;-65
2022/04/16 02:40:51;;;;;;;1.63;1.17;;;4.20;99.90;3.90;101935.00;;;;4867889;28;103091;-65
2022/04/16 02:43:17;;;;;;;2.10;0.93;;;4.10;99.90;3.90;101945.00;;;;4872082;28;92001;-64
2022/04/16 02:48:26;;;;;;;4.63;1.03;;;4.10;99.90;3.80;101958.00;;;;4855193;28;92895;-64
2022/04/16 02:50:53;;;;;;;0.77;0.77;;;4.00;99.90;3.80;101961.00;;;;4854628;28;110147;-64
2022/04/16 02:53:21;;;;;;;0.70;0.70;;;4.00;99.90;3.80;101954.00;;;;4856413;28;93149;-64
2022/04/16 02:55:48;;;;;;;0.87;0.83;;;4.00;99.90;3.80;101958.00;;;;4870662;28;122655;-67
2022/04/16 02:58:16;;;;;;;2.63;1.40;;;4.00;99.90;3.80;101955.00;;;;4874698;28;92807;-66
2022/04/16 03:00:42;;;;;;;0.77;0.70;;;4.00;99.90;3.80;101964.00;;;;4862869;28;111475;-66
2022/04/16 03:03:08;;;;;;;3.10;1.10;;;3.90;99.90;3.80;101959.00;;;;4855893;28;109077;-67
2022/04/16 03:05:34;;;;;;;3.03;0.97;;;4.00;99.90;3.80;101957.00;;;;4858878;28;92741;-67
2022/04/16 03:08:06;;;;;;;1.50;0.93;;;4.00;99.90;3.80;101960.00;;;;4859335;28;92837;-66
2022/04/16 03:10:32;;;;;;;0.43;0.43;;;4.00;99.90;3.80;101970.00;;;;4866319;28;93218;-65
2022/04/16 03:12:57;;;;;;;3.00;0.93;;;4.00;99.90;3.80;101966.00;;;;4860635;28;92873;-64
2022/04/16 03:18:09;;;;;;;1.23;0.70;;;4.00;99.90;3.80;101989.00;;;;4858317;28;93574;-64
2022/04/16 03:20:39;;;;;;;1.23;0.50;;;4.00;99.90;3.80;101987.00;;;;4870938;28;92857;-64
2022/04/16 03:23:05;;;;;;;0.60;0.60;;;4.00;99.90;3.80;101991.00;;;;4878096;28;92732;-64
2022/04/16 03:25:31;;;;;;;0.57;0.57;;;4.00;99.90;3.80;101990.00;;;;4877861;28;93310;-65
2022/04/16 03:27:57;;;;;;;0.90;0.90;;;4.00;99.90;3.80;101981.00;;;;4877625;28;93807;-64
2022/04/16 03:30:24;;;;;;;0.43;0.43;;;4.00;99.90;3.80;101993.00;;;;4877826;28;92758;-65
2022/04/16 03:32:52;;;;;;;1.10;0.73;;;4.00;99.90;3.70;101981.00;;;;4878914;28;92222;-67
2022/04/16 03:35:19;;;;;;;1.27;1.17;;;4.00;99.90;3.70;101999.00;;;;4876570;28;115176;-66
2022/04/16 03:37:45;;;;;;;2.87;0.67;;;3.90;99.90;3.70;101994.00;;;;4876448;28;116963;-67
2022/04/16 03:40:12;;;;;;;1.27;1.17;;;3.90;99.90;3.70;101994.00;;;;4846650;28;94066;-66
2022/04/16 03:42:59;;;;;;;1.70;1.07;;;3.90;99.90;3.70;101993.00;;;;4841771;28;92782;-66
2022/04/16 03:45:29;;;;;;;1.10;0.97;;;3.90;99.90;3.70;101999.00;;;;4858807;28;92762;-64
2022/04/16 03:47:57;;;;;;;1.07;0.77;;;4.00;99.90;3.70;102007.00;;;;4858033;28;92824;-64
2022/04/16 03:50:25;;;;;;;1.60;1.33;;;3.90;99.90;3.70;102010.00;;;;4858230;28;104391;-64
2022/04/16 03:52:52;;;;;;;1.70;1.00;;;3.90;99.90;3.70;102009.00;;;;4858678;28;92846;-66
2022/04/16 04:00:55;;;;;;;0.63;0.63;;;3.90;99.90;3.70;102020.00;;;;4866454;28;92750;-66
2022/04/16 04:03:22;;;;;;;0.63;0.63;;;3.90;99.90;3.70;102030.00;;;;4876425;28;108698;-66
2022/04/16 04:05:49;;;;;;;1.43;0.80;;;3.90;99.90;3.70;102029.00;;;;4868681;28;94204;-66
2022/04/16 04:08:16;;;;;;;0.43;0.43;;;3.90;99.90;3.70;102035.00;;;;4862551;28;94541;-66
2022/04/16 04:10:42;;;;;;;2.50;0.87;;;3.90;99.90;3.60;102048.00;;;;4860156;28;93064;-65
2022/04/16 04:13:08;;;;;;;0.77;0.77;;;4.30;99.90;3.60;102058.00;;;;4877783;28;92841;-67
2022/04/16 04:15:34;;;;;;;0.97;0.90;;;3.80;99.90;3.50;102052.00;;;;4869786;28;92880;-64
2022/04/16 04:18:03;;;;;;;0.57;0.57;;;3.80;99.90;3.50;102067.00;;;;4875926;28;93006;-67
2022/04/16 04:20:30;;;;;;;1.03;0.70;;;3.70;99.90;3.50;102058.00;;;;4877953;28;92784;-65
2022/04/16 04:22:56;;;;;;;1.33;1.03;;;3.70;99.90;3.40;102057.00;;;;4876724;28;92219;-64
2022/04/16 04:25:25;;;;;;;1.20;1.03;;;3.70;99.90;3.40;102072.00;;;;4871676;28;93942;-64
2022/04/16 04:27:50;;;;;;;1.70;1.07;;;3.60;99.90;3.40;102076.00;;;;4873875;28;104177;-64
2022/04/16 04:30:16;;;;;;;1.00;0.90;;;3.60;99.90;3.40;102077.00;;;;4871099;28;94073;-65
2022/04/16 04:32:44;;;;;;;1.80;1.13;;;3.60;99.90;3.30;102077.00;;;;4872710;28;109435;-64
2022/04/16 04:35:10;;;;;;;1.33;1.23;;;3.50;99.90;3.30;102087.00;;;;4864514;28;124054;-65
2022/04/16 04:37:36;;;;;;;2.70;1.33;;;3.50;99.90;3.30;102088.00;;;;4852409;28;121639;-64
2022/04/16 04:40:03;;;;;;;2.73;1.17;;;3.50;99.90;3.30;102084.00;;;;4863142;28;93044;-66
2022/04/16 04:42:32;;;;;;;0.90;0.90;;;3.50;99.90;3.30;102097.00;;;;4877132;28;92696;-64
2022/04/16 04:44:58;;;;;;;1.33;0.73;;;3.50;99.90;3.20;102079.00;;;;4875567;28;97528;-65
2022/04/16 04:47:24;;;;;;;1.43;1.13;;;3.20;99.90;3.30;102092.00;;;;4876163;28;93843;-66
2022/04/16 04:49:51;;;;;;;0.90;0.87;;;3.40;99.90;3.30;102099.00;;;;4875681;28;102760;-66
2022/04/16 04:52:26;;;;;;;1.30;1.20;;;3.50;99.90;3.30;102098.00;;;;4875804;28;108636;-66
2022/04/16 04:55:12;;;;;;;1.57;1.17;;;3.40;99.90;3.30;102105.00;;;;4858904;28;95050;-66
2022/04/16 04:57:39;;;;;;;1.30;0.97;;;3.50;99.90;3.30;102113.00;;;;4876130;28;106563;-66
2022/04/16 05:00:07;;;;;;;1.10;1.00;;;3.60;99.90;3.30;102107.00;;;;4876950;28;92839;-66
2022/04/16 05:02:45;;;;;;;1.30;1.20;;;3.50;99.90;3.30;102111.00;;;;4872725;28;93117;-66
2022/04/16 05:05:11;;;;;;;2.37;1.33;;;3.60;99.90;3.40;102116.00;;;;4857404;28;93362;-66
2022/04/16 05:07:37;;;;;;;1.03;0.93;;;3.60;99.90;3.40;102118.00;;;;4857352;28;92979;-65
2022/04/16 05:10:04;;;;;;;1.10;1.00;;;3.60;99.90;3.50;102115.00;;;;4857596;28;92866;-66
2022/04/16 05:12:30;;;;;;;1.10;1.00;;;3.70;99.90;3.50;102130.00;;;;4872358;28;92261;-66
2022/04/16 05:14:56;;;;;;;1.50;1.40;;;3.70;99.90;3.60;102134.00;;;;4875110;28;93141;-66
2022/04/16 05:17:21;;;;;;;2.73;1.77;;;3.70;99.90;3.60;102137.00;;;;4871846;28;92881;-66
2022/04/16 05:19:47;;;;;;;2.63;1.63;;;3.80;99.90;3.60;102127.00;;;;4887190;28;93569;-67
2022/04/16 05:22:12;;;;;;;1.20;1.10;;;3.80;99.90;3.60;102137.00;;;;4874074;28;107956;-66
2022/04/16 05:24:38;;;;;;;2.20;1.27;;;3.80;99.90;3.60;102143.00;;;;4875770;28;121985;-66
2022/04/16 05:27:04;;;;;;;1.07;1.00;;;4.20;99.90;3.60;102143.00;;;;4874719;28;121858;-66
2022/04/16 05:29:48;;;;;;;1.50;1.30;;;3.80;99.90;3.70;102140.00;;;;4874879;28;109309;-66
2022/04/16 05:32:19;;;;;;;1.33;1.07;;;3.90;99.90;3.70;102143.00;;;;4857783;28;92770;-66
2022/04/16 05:34:45;;;;;;;1.43;1.33;;;3.90;99.90;3.80;102162.00;;;;4857023;28;93879;-66
2022/04/16 05:37:10;;;;;;;1.93;1.07;;;3.90;99.90;3.80;102158.00;;;;4855816;28;122268;-66
2022/04/16 05:39:38;;;;;;;1.47;1.20;;;4.00;99.90;3.90;102159.00;;;;4856642;28;110262;-66
2022/04/16 05:42:04;;;;;;;1.87;1.30;;;4.00;99.90;3.90;102168.00;;;;4857084;28;92817;-66
2022/04/16 05:44:30;;;;;;;1.40;1.30;;;4.00;99.90;3.90;102164.00;;;;4868933;28;108612;-66
2022/04/16 05:46:56;;;;;;;1.13;1.03;;;4.10;99.90;4.00;102167.00;;;;4874410;28;123258;-66
2022/04/16 05:49:21;;;;;;;3.23;1.03;;;4.10;99.90;4.10;102174.00;;;;4875521;28;102559;-66
2022/04/16 05:51:47;;;;;;;1.70;0.97;;;4.20;99.90;4.20;102171.00;;;;4874818;28;107826;-66
2022/04/16 05:54:13;;;;;;;2.07;1.63;;;4.30;99.90;4.40;102171.00;;;;4875105;28;122987;-64
2022/04/16 05:56:38;;;;;;;1.10;0.83;;;4.50;99.90;4.60;102166.00;;;;4866270;28;122001;-64
2022/04/16 05:59:04;;;;;;;1.23;1.13;;;4.60;99.90;4.70;102163.00;;;;4872423;28;111038;-64
2022/04/16 06:01:30;;;;;;;1.70;1.13;;;4.80;99.90;4.90;102158.00;;;;4871082;28;109353;-64
2022/04/16 06:03:55;;;;;;;0.73;0.73;;;4.90;99.90;5.00;102163.00;;;;4853729;28;93207;-65
2022/04/16 06:06:21;;;;;;;1.13;0.93;;;5.10;99.90;5.10;102177.00;;;;4865617;28;122150;-65
2022/04/16 06:08:47;;;;;;;2.57;1.63;;;5.20;99.90;5.20;102177.00;;;;4871875;28;93965;-63
2022/04/16 06:11:16;;;;;;;0.90;0.83;;;5.20;99.90;5.20;102178.00;;;;4871088;28;93882;-64
2022/04/16 06:13:42;;;;;;;4.63;1.47;;;5.30;99.90;5.30;102177.00;;;;4871317;28;93142;-66
2022/04/16 06:16:09;;;;;;;4.97;1.47;;;5.40;99.90;5.40;102185.00;;;;4870722;28;112042;-64
2022/04/16 06:18:35;;;;;;;1.00;0.87;;;5.40;99.90;5.40;102181.00;;;;4872564;28;93024;-65
2022/04/16 06:21:01;;;;;;;0.83;0.80;;;5.50;99.90;5.40;102184.00;;;;4871215;28;92893;-66
2022/04/16 06:23:26;;;;;;;1.30;1.20;;;5.50;99.90;5.40;102197.00;;;;4871648;28;93278;-64
2022/04/16 06:25:52;;;;;;;0.73;0.63;;;5.50;99.90;5.40;102190.00;;;;4870411;28;93557;-65
2022/04/16 06:28:18;;;;;;;1.53;0.70;;;5.50;99.90;5.40;102191.00;;;;4870402;28;108978;-65
2022/04/16 06:30:43;;;;;;;2.70;0.93;;;5.80;99.90;5.30;102192.00;;;;4865814;28;109919;-64
2022/04/16 06:33:09;;;;;;;1.07;0.90;;;5.40;99.90;5.40;102186.00;;;;4871285;28;94580;-64
2022/04/16 06:35:35;;;;;;;2.27;0.90;;;5.50;99.90;5.30;102192.00;;;;4868012;28;123648;-64
2022/04/16 06:38:00;;;;;;;0.87;0.70;;;5.50;99.90;5.40;102203.00;;;;4869850;28;110545;-66
2022/04/16 06:40:26;;;;;;;1.00;0.90;;;5.90;99.90;5.30;102202.00;;;;4863823;28;108171;-67
2022/04/16 06:42:52;;;;;;;1.73;0.80;;;5.40;99.90;5.30;102196.00;;;;4870224;28;123234;-65
2022/04/16 06:45:18;;;;;;;0.57;0.57;;;5.50;99.90;5.40;102208.00;;;;4871663;28;93598;-65
2022/04/16 06:47:43;;;;;;;1.20;0.80;;;5.50;99.90;5.40;102199.00;;;;4870547;28;111179;-65
2022/04/16 06:50:09;;;;;;;1.13;0.83;;;5.50;99.90;5.40;102208.00;;;;4870528;28;109347;-65
2022/04/16 06:52:36;;;;;;;1.43;0.80;;;5.50;99.90;5.50;102207.00;;;;4869256;28;108780;-65
2022/04/16 06:55:03;;;;;;;0.93;0.93;;;5.60;99.90;5.50;102195.00;;;;4865230;28;93320;-64
2022/04/16 06:57:29;;;;;;;0.97;0.73;;;5.60;99.90;5.40;102208.00;;;;4870288;28;104367;-63
2022/04/16 06:59:55;;;;;;;2.37;0.60;;;5.50;99.90;5.40;102208.00;;;;4870430;28;92808;-65
2022/04/16 07:02:20;;;;;;;0.90;0.73;;;5.50;99.90;5.40;102210.00;;;;4870295;28;123397;-65
2022/04/16 07:04:46;;;;;;;1.53;1.20;;;5.90;99.90;5.40;102205.00;;;;4870053;28;121789;-64
2022/04/16 07:07:12;;;;;;;0.77;0.73;;;5.40;99.90;5.40;102207.00;;;;4862095;28;110828;-64
2022/04/16 07:09:38;;;;;;;0.50;0.50;;;5.50;99.90;5.40;102210.00;;;;4869744;28;107715;-64
2022/04/16 07:12:12;;;;;;;0.70;0.70;;;5.50;99.90;5.40;102209.00;;;;4870984;28;93805;-66
2022/04/16 07:14:39;;;;;;;51.77;28.50;;;5.50;99.90;5.40;102217.00;;;;4869460;28;93131;-66
2022/04/16 07:17:07;;;;;;;49.13;30.00;;;5.70;99.90;5.40;102217.00;;;;4866609;28;92956;-66
2022/04/16 07:19:33;;;;;;;182.70;122.27;;;5.50;99.90;5.50;102215.00;;;;4869276;28;92883;-66
2022/04/16 07:22:00;;;;;;;11.07;9.77;;;5.60;99.90;5.70;102212.00;;;;4862489;28;95251;-66
2022/04/16 07:24:26;;;;;;;17.80;12.37;;;6.00;99.90;5.90;102217.00;;;;4852721;28;94227;-66
2022/04/16 07:26:54;;;;;;;65.40;53.17;;;5.90;99.90;6.10;102210.00;;;;4869943;28;93011;-66
2022/04/16 07:29:24;;;;;;;6.60;5.93;;;6.10;99.90;6.30;102211.00;;;;4865674;28;93230;-65
2022/04/16 07:31:50;;;;;;;7.87;5.50;;;6.20;99.90;6.40;102218.00;;;;4869923;28;100783;-66
2022/04/16 07:34:16;;;;;;;3.40;2.17;;;6.40;99.90;6.50;102217.00;;;;4870845;28;93456;-67
2022/04/16 07:36:43;;;;;;;2.53;2.17;;;6.50;99.90;6.60;102219.00;;;;4871028;28;93087;-66
2022/04/16 07:39:10;;;;;;;4.73;2.13;;;7.00;99.90;6.70;102224.00;;;;4872316;28;92396;-66
2022/04/16 07:41:36;;;;;;;4.23;2.73;;;6.70;99.20;6.80;102231.00;;;;4869592;28;95314;-66
2022/04/16 07:44:03;;;;;;;10.73;8.70;;;6.80;98.70;6.90;102219.00;;;;4870371;28;93468;-66
2022/04/16 07:46:33;;;;;;;6.07;5.07;;;6.90;98.70;7.00;102233.00;;;;4870411;28;93838;-66
2022/04/16 07:49:00;;;;;;;3.40;3.07;;;7.00;98.40;7.00;102234.00;;;;4868408;28;93208;-65
2022/04/16 07:51:26;;;;;;;2.67;1.40;;;7.00;97.10;7.10;102235.00;;;;4868599;28;113879;-66
2022/04/16 07:53:54;;;;;;;2.80;2.60;;;7.20;98.20;7.30;102235.00;;;;4872123;28;113435;-66
2022/04/16 07:56:20;;;;;;;2.10;1.43;;;7.30;97.10;7.30;102236.00;;;;4851511;28;93179;-66
2022/04/16 07:58:46;;;;;;;3.17;2.87;;;7.40;96.40;7.40;102238.00;;;;4873924;28;93372;-65
2022/04/16 08:01:11;;;;;;;2.47;0.93;;;7.40;96.80;7.40;102240.00;;;;4873122;28;93558;-66
2022/04/16 08:03:38;;;;;;;3.33;1.10;;;7.50;94.60;7.40;102239.00;;;;4867886;28;121120;-66
2022/04/16 08:06:03;;;;;;;14.60;8.83;;;7.50;94.70;7.40;102231.00;;;;4874200;28;92923;-65
2022/04/16 08:08:29;;;;;;;6.90;4.20;;;7.40;94.20;7.30;102241.00;;;;4870658;28;92946;-65
2022/04/16 08:10:56;;;;;;;2.97;2.53;;;7.20;93.60;7.20;102254.00;;;;4872306;28;122789;-66
2022/04/16 08:13:22;;;;;;;8.70;4.20;;;7.30;93.80;7.20;102256.00;;;;4872528;28;95106;-66
2022/04/16 08:15:48;;;;;;;3.17;2.17;;;7.20;94.40;7.20;102254.00;;;;4869358;28;93251;-66
2022/04/16 08:18:14;;;;;;;2.20;1.17;;;7.20;94.90;7.20;102263.00;;;;4873202;28;93099;-65
2022/04/16 08:20:41;;;;;;;9.30;7.30;;;7.20;95.10;7.30;102267.00;;;;4873185;28;93732;-66
2022/04/16 08:23:07;;;;;;;7.03;6.20;;;7.30;95.40;7.30;102263.00;;;;4869820;28;123287;-66
2022/04/16 08:28:01;;;;;;;2.10;1.80;;;7.40;95.10;7.30;102263.00;;;;4872831;28;92061;-65
2022/04/16 08:30:27;;;;;;;1.20;1.10;;;7.30;95.10;7.30;102258.00;;;;4872536;28;105262;-65
2022/04/16 08:32:53;;;;;;;1.60;1.37;;;7.40;94.70;7.40;102259.00;;;;4872431;28;93886;-66
2022/04/16 08:35:19;;;;;;;1.87;0.77;;;7.50;94.80;7.50;102263.00;;;;4872108;28;93851;-66
2022/04/16 08:37:47;;;;;;;1.87;1.60;;;7.50;94.20;7.60;102269.00;;;;4873024;28;92925;-65
2022/04/16 08:40:14;;;;;;;1.53;1.07;;;7.70;94.60;7.80;102267.00;;;;4872870;28;94091;-66
2022/04/16 08:42:42;;;;;;;1.80;1.37;;;9.10;94.60;8.00;102267.00;;;;4853761;28;93092;-66
2022/04/16 08:45:09;;;;;;;1.50;1.30;;;7.90;94.60;8.40;102276.00;;;;4873732;28;92907;-66
2022/04/16 08:47:38;;;;;;;1.07;1.07;;;8.20;95.10;8.90;102270.00;;;;4872473;28;102527;-65
2022/04/16 08:50:07;;;;;;;3.00;1.90;;;8.60;93.70;9.40;102265.00;;;;4873030;28;94101;-66
2022/04/16 08:52:35;;;;;;;1.00;0.87;;;9.10;90.60;9.80;102272.00;;;;4872661;28;93605;-66
2022/04/16 08:55:15;;;;;;;5.80;0.67;;;9.50;90.30;10.40;102269.00;;;;4869851;28;102869;-65
2022/04/16 08:57:41;;;;;;;2.40;0.67;;;10.10;90.20;10.80;102275.00;;;;4866886;28;109336;-66
2022/04/16 09:00:09;;;;;;;17.07;12.60;;;10.50;82.30;11.30;102276.00;;;;4869736;28;95170;-65
2022/04/16 09:02:34;;;;;;;4.87;3.90;;;10.90;82.70;11.80;102264.00;;;;4871130;28;94594;-65
2022/04/16 09:05:06;;;;;;;9.57;5.37;;;11.50;81.20;12.10;102272.00;;;;4867330;28;113571;-65
2022/04/16 09:07:43;;;;;;;2.80;2.30;;;11.80;78.40;12.20;102267.00;;;;4872747;28;92777;-65
2022/04/16 09:10:10;;;;;;;1.87;1.50;;;12.00;78.10;12.40;102285.00;;;;4869432;28;93087;-65
2022/04/16 09:12:40;;;;;;;1.37;1.03;;;12.20;76.80;12.60;102277.00;;;;4869460;28;93627;-64
2022/04/16 09:15:14;;;;;;;1.83;1.20;;;12.30;76.40;12.70;102268.00;;;;4848980;28;92969;-64
2022/04/16 09:17:41;;;;;;;5.60;3.50;;;12.50;75.30;12.70;102264.00;;;;4873102;28;92354;-64
2022/04/16 09:20:11;;;;;;;1.93;1.40;;;12.60;72.50;12.60;102277.00;;;;4872544;28;93243;-65
2022/04/16 09:22:39;;;;;;;1.20;0.93;;;12.60;70.40;12.30;102273.00;;;;4872706;28;93086;-66
2022/04/16 09:25:18;;;;;;;1.10;1.00;;;12.40;69.80;12.00;102277.00;;;;4872449;28;94092;-64
2022/04/16 09:27:49;;;;;;;1.13;1.03;;;12.20;69.10;11.70;102281.00;;;;4872222;28;92686;-65
2022/04/16 09:30:30;;;;;;;3.33;0.97;;;11.90;69.00;11.50;102274.00;;;;4872619;28;93102;-64
2022/04/16 09:32:58;;;;;;;5.33;0.87;;;11.70;70.10;11.50;102275.00;;;;4872119;28;93622;-65
2022/04/16 09:35:33;;;;;;;0.53;0.53;;;11.50;69.60;11.70;102269.00;;;;4872135;28;93276;-65
2022/04/16 09:38:00;;;;;;;2.43;0.50;;;11.60;69.70;12.00;102279.00;;;;4871251;28;92932;-65
2022/04/16 09:40:32;;;;;;;2.10;0.90;;;11.90;70.40;12.40;102281.00;;;;4872344;28;93494;-66
2022/04/16 09:43:01;;;;;;;4.13;2.77;;;12.10;69.10;12.80;102282.00;;;;4872627;28;93110;-66
2022/04/16 09:45:28;;;;;;;0.90;0.70;;;12.50;67.20;13.10;102280.00;;;;4871277;28;92775;-66
2022/04/16 09:47:54;;;;;;;2.20;1.03;;;12.80;67.00;13.50;102283.00;;;;4872078;28;92980;-65
2022/04/16 09:50:23;;;;;;;1.30;1.00;;;13.10;66.40;13.90;102278.00;;;;4870944;28;93952;-65
2022/04/16 09:52:55;;;;;;;1.80;1.20;;;13.50;65.60;14.30;102289.00;;;;4871882;28;94207;-66
2022/04/16 09:55:23;;;;;;;4.33;1.63;;;13.90;63.00;14.80;102288.00;;;;4870588;28;92651;-65
2022/04/16 09:57:53;;;;;;;2.37;1.03;;;14.30;62.20;15.20;102281.00;;;;4872011;28;93158;-66
2022/04/16 10:00:19;;;;;;;3.07;0.70;;;14.70;61.00;15.70;102284.00;;;;4867549;28;93481;-65
2022/04/16 10:02:46;;;;;;;1.27;1.13;;;15.20;60.00;16.20;102292.00;;;;4870749;28;112808;-66
2022/04/16 10:05:12;;;;;;;0.93;0.83;;;15.60;60.30;16.70;102296.00;;;;4871101;28;93046;-68
2022/04/16 10:07:38;;;;;;;1.55;0.90;;;16.10;58.90;17.10;102293.00;;;;4872746;28;92476;-69
2022/04/16 10:10:17;;;;;;;1.08;0.95;;;16.50;55.60;17.30;102293.00;;;;4869919;28;123070;-69
2022/04/16 10:13:00;;;;;;;0.50;0.50;;;16.70;52.40;17.50;102287.00;;;;4870418;28;93727;-68
2022/04/16 10:15:57;;;;;;;0.98;0.73;;;16.90;52.70;17.70;102293.00;;;;4864558;28;93694;-69
2022/04/16 10:18:24;;;;;;;1.20;1.10;;;17.10;52.60;17.90;102302.00;;;;4865114;28;92916;-69
2022/04/16 10:20:50;;;;;;;0.43;0.40;;;17.30;51.90;18.20;102296.00;;;;4853959;28;93661;-69
2022/04/16 10:23:28;;;;;;;0.60;0.60;;;17.60;51.60;18.50;102288.00;;;;4862219;28;94779;-68
2022/04/16 10:26:11;;;;;;;1.25;0.93;;;17.80;50.70;18.70;102290.00;;;;4838313;28;93405;-69
2022/04/16 10:28:51;;;;;;;0.63;0.60;;;18.10;50.30;18.90;102296.00;;;;4848372;28;93043;-69
2022/04/16 10:31:27;;;;;;;3.22;2.50;;;18.30;50.30;19.00;102285.00;;;;4868762;28;93385;-69
2022/04/16 10:34:05;;;;;;;0.93;0.88;;;18.40;48.70;18.90;102297.00;;;;4871619;28;93851;-69
2022/04/16 10:36:43;;;;;;;2.22;1.17;;;18.40;48.10;19.00;102290.00;;;;4871758;28;92897;-68
2022/04/16 10:39:27;;;;;;;1.35;1.02;;;18.50;47.40;19.00;102297.00;;;;4871083;28;92634;-70
2022/04/16 10:41:59;;;;;;;0.88;0.82;;;18.50;47.50;19.10;102300.00;;;;4852778;28;94619;-69
2022/04/16 10:44:26;;;;;;;1.30;0.65;;;18.60;47.70;19.20;102287.00;;;;4869518;28;95074;-69
2022/04/16 10:46:54;;;;;;;1.10;1.10;;;18.70;47.50;19.40;102291.00;;;;4871437;28;93120;-70
2022/04/16 10:49:25;;;;;;;2.67;1.00;;;18.80;47.70;19.70;102287.00;;;;4871508;28;92818;-69
2022/04/16 10:51:52;;;;;;;1.73;1.45;;;19.00;45.80;19.70;102288.00;;;;4849882;28;93091;-69
2022/04/16 10:54:36;;;;;;;1.48;0.85;;;19.20;45.20;19.80;102298.00;;;;4867403;28;93690;-68
2022/04/16 10:57:03;;;;;;;0.90;0.70;;;19.20;46.00;20.00;102294.00;;;;4866101;28;92793;-69
2022/04/16 10:59:41;;;;;;;0.70;0.70;;;19.40;45.70;20.10;102301.00;;;;4872290;28;92106;-69
2022/04/16 11:02:25;;;;;;;0.82;0.80;;;19.50;45.60;20.40;102299.00;;;;4870729;28;93167;-69
2022/04/16 11:05:05;;;;;;;0.80;0.43;;;19.70;45.80;20.70;102304.00;;;;4871532;28;92766;-70
2022/04/16 11:07:36;;;;;;;1.33;1.25;;;20.00;45.90;21.00;102307.00;;;;4870286;28;93852;-69
2022/04/16 11:10:10;;;;;;;3.28;1.63;;;20.20;45.20;21.10;102311.00;;;;4866398;28;92790;-69
2022/04/16 11:12:40;;;;;;;0.90;0.85;;;20.50;44.00;21.10;102301.00;;;;4852118;28;93046;-69